• Join FlightAware (Why Join?)
  • Login
  • US Flag 
12:06PM EST


 

Airport Tracker/Info


-or-


 

Live Flight TrackerFlight Track Log ✈ LXJ342 ✈ 05-Jun-2014 ✈ KESN - KSUS

Flight Track Log - Related Links

Times and Time Zones

All times are in EDT time to prevent confusion due to time zone crossing. See the LXJ342 flight status page for this flight to view local times or setup timezone preferences in your user account.

Time Position Orientation Groundspeed Altitude Reporting Facility
EDT Latitude Longitude Course Direction KTS MPH feet Rate Location/Type
06:16PM 38.8500 -76.0667 345° North 213 245 2,100  Level Potomac TRACON
06:17PM 38.9000 -76.0833 345° North 218 251 2,200 1,560 Climbing Potomac TRACON
06:19PM 38.9667 -76.1167 339° North 246 283 5,400 2,700 Climbing Potomac TRACON
06:20PM 39.0333 -76.1500 339° North 271 312 7,900 1,320 Climbing Potomac TRACON
06:21PM 39.0667 -76.2333 297° West 269 310 8,100 1,260 Climbing Potomac TRACON
06:22PM 39.0833 -76.3167 284° West 272 313 10,500 1,860 Climbing Potomac TRACON
06:23PM 39.1167 -76.4167 293° West 276 318 11,900 660 Climbing Potomac TRACON
06:24PM 39.1333 -76.5167 282° West 314 361 11,900  Level Potomac TRACON
06:25PM 39.1667 -76.6333 290° West 291 335 12,000 900 Climbing Potomac TRACON
06:26PM 39.1833 -76.7667 279° West 273 314 13,900 900 Climbing Potomac TRACON
06:27PM 39.2000 -76.8833 280° West 333 383 13,900  Level Potomac TRACON
06:27PM 39.2039 -76.9469 275° West 354 407 14,000 1,740 Climbing Washington Center
06:28PM 39.2189 -77.0944 278° West 345 397 16,900 1,560 Climbing Washington Center
06:29PM 39.1736 -77.1953 240° Southwest 355 409 17,100 840 Climbing Washington Center
06:30PM 39.0914 -77.2603 212° Southwest 355 409 18,600 1,980 Climbing Washington Center
06:31PM 38.9931 -77.3008 198° South 373 429 21,100 2,160 Climbing Washington Center
06:32PM 38.9147 -77.3872 221° Southwest 378 435 22,900 1,320 Climbing Washington Center
06:33PM 38.9081 -77.5444 267° West 360 414 23,800 1,080 Climbing Washington Center
06:34PM 38.8953 -77.6747 263° West 399 459 25,100 1,080 Climbing Washington Center
06:35PM 38.8842 -77.8369 265° West 422 486 26,000 420 Climbing Washington Center
06:36PM 38.8708 -77.9886 264° West 428 493 26,000  Level Washington Center
06:37PM 38.8597 -78.1269 264° West 421 484 26,000  Level Washington Center
06:38PM 38.8544 -78.2628 267° West 401 461 26,000  Level Washington Center
06:39PM 38.8514 -78.4011 268° West 395 455 26,000  Level Washington Center
06:40PM 38.8503 -78.5372 269° West 388 447 26,000  Level Washington Center
06:41PM 38.8489 -78.6756 269° West 383 441 26,000  Level Washington Center
06:42PM 38.8475 -78.8117 269° West 383 441 26,000  Level Washington Center
06:43PM 38.8436 -78.9528 268° West 383 441 26,000  Level Washington Center
06:44PM 38.8417 -79.0939 269° West 389 448 26,000  Level Washington Center
06:45PM 38.8394 -79.2350 269° West 395 455 26,000  Level Washington Center
06:46PM 38.8372 -79.3708 269° West 395 455 26,000  Level Washington Center
06:47PM 38.8350 -79.5119 269° West 400 460 26,000  Level Washington Center
06:48PM 38.8344 -79.6506 270° West 400 460 26,000  Level Washington Center
06:49PM 38.8317 -79.7917 269° West 402 463 26,000  Level Washington Center
06:50PM 38.8247 -79.9156 266° West 394 453 26,000  Level Indianapolis Center
06:51PM 38.8208 -80.0842 268° West 394 453 26,000  Level Indianapolis Center
06:52PM 38.8175 -80.2247 268° West 394 453 26,000  Level Indianapolis Center
06:54PM 38.8131 -80.3669 268° West 395 455 26,000  Level Indianapolis Center
06:55PM 38.8078 -80.5092 267° West 396 456 26,000  Level Indianapolis Center
06:56PM 38.8044 -80.6525 268° West 400 460 26,000  Level Indianapolis Center
06:57PM 38.7992 -80.7956 267° West 400 460 26,000  Level Indianapolis Center
06:58PM 38.7875 -80.9672 265° West 402 463 26,000  Level Indianapolis Center
06:59PM 38.7719 -81.1111 262° West 404 465 26,000  Level Indianapolis Center
07:00PM 38.7578 -81.2564 263° West 408 470 26,000  Level Indianapolis Center
07:01PM 38.7439 -81.4011 263° West 409 471 26,000  Level Indianapolis Center
07:02PM 38.7275 -81.5603 263° West 409 471 26,000  Level Indianapolis Center
07:03PM 38.7122 -81.7128 263° West 415 478 26,000  Level Indianapolis Center
07:04PM 38.6969 -81.8594 262° West 416 479 26,000  Level Indianapolis Center
07:05PM 38.6811 -82.0058 262° West 416 479 26,000  Level Indianapolis Center
07:06PM 38.6653 -82.1561 262° West 422 486 26,000  Level Indianapolis Center
07:07PM 38.6467 -82.3328 262° West 421 484 26,000  Level Indianapolis Center
07:08PM 38.6300 -82.4811 262° West 421 484 26,000  Level Indianapolis Center
07:09PM 38.6156 -82.6219 263° West 421 484 26,000  Level Indianapolis Center
07:10PM 38.5986 -82.7703 262° West 421 484 26,000  Level Indianapolis Center
07:11PM 38.5789 -82.9444 262° West 422 486 26,000  Level Indianapolis Center
07:12PM 38.5611 -83.0969 262° West 428 493 26,000  Level Indianapolis Center
07:13PM 38.5450 -83.2450 262° West 428 493 26,000  Level Indianapolis Center
07:14PM 38.5267 -83.3936 261° West 428 493 26,000  Level Indianapolis Center
07:15PM 38.5092 -83.5433 262° West 426 490 26,000  Level Indianapolis Center
07:16PM 38.4886 -83.7183 262° West 427 491 26,000  Level Indianapolis Center
07:17PM 38.4706 -83.8697 261° West 427 491 26,000  Level Indianapolis Center
07:18PM 38.4517 -84.0194 261° West 428 493 26,000  Level Indianapolis Center
07:19PM 38.4336 -84.1689 261° West 428 493 26,000  Level Indianapolis Center
07:20PM 38.4147 -84.3208 261° West 428 493 26,000  Level Indianapolis Center
07:21PM 38.3919 -84.4961 261° West 429 494 26,000  Level Indianapolis Center
07:23PM 38.3733 -84.6469 261° West 429 494 26,000  Level Indianapolis Center
07:24PM 38.3533 -84.8003 261° West 432 497 26,000  Level Indianapolis Center
07:25PM 38.3339 -84.9519 261° West 432 497 26,000  Level Indianapolis Center
07:26PM 38.3125 -85.1056 260° West 435 501 26,000  Level Indianapolis Center
07:27PM 38.2914 -85.2728 261° West 437 503 26,000  Level Indianapolis Center
07:28PM 38.2706 -85.4242 260° West 437 503 26,000  Level Indianapolis Center
07:29PM 38.2508 -85.5781 261° West 437 503 26,000  Level Indianapolis Center
07:30PM 38.2283 -85.7328 260° West 437 503 26,000  Level Indianapolis Center
07:31PM 38.2075 -85.8850 260° West 437 503 26,000  Level Indianapolis Center
07:32PM 38.1814 -86.0656 260° West 437 503 26,000  Level Indianapolis Center
07:33PM 38.1522 -86.2778 260° West 436 502 26,000  Level Kansas City Center
07:34PM 38.1308 -86.4278 260° West 434 499 26,000  Level Kansas City Center
07:35PM 38.1175 -86.5161 259° West 432 497 26,000  Level Indianapolis Center
07:36PM 38.0956 -86.6647 259° West 425 489 26,000  Level Indianapolis Center
07:37PM 38.0725 -86.8153 259° West 426 490 26,000  Level Indianapolis Center
07:38PM 38.0503 -86.9667 259° West 427 491 26,000  Level Indianapolis Center
07:40PM 38.0133 -87.2072 259° West 429 494 26,000  Level Kansas City Center
07:40PM 38.0047 -87.2681 260° West 427 491 26,000  Level Indianapolis Center
07:41PM 37.9825 -87.4175 259° West 428 493 26,000  Level Indianapolis Center
07:42PM 37.9544 -87.5967 259° West 427 491 26,000  Level Indianapolis Center
07:43PM 37.9303 -87.7481 259° West 429 494 26,000  Level Indianapolis Center
07:44PM 37.9103 -87.8986 260° West 431 496 26,000  Level Indianapolis Center
07:45PM 37.8897 -88.0467 260° West 430 495 26,000  Level Indianapolis Center
07:46PM 37.8708 -88.1958 261° West 430 495 26,000  Level Indianapolis Center
07:47PM 37.8489 -88.3472 260° West 432 497 26,000  Level Indianapolis Center
07:48PM 37.8358 -88.4358 259° West 432 497 26,000  Level Kansas City Center
07:49PM 37.8144 -88.5850 260° West 431 496 26,000 -360 Level Kansas City Center
07:50PM 37.7950 -88.7325 261° West 429 494 25,300 -1,020 Descending Kansas City Center
07:51PM 37.7750 -88.8800 260° West 429 494 24,000 -660 Descending Kansas City Center
07:52PM 37.7625 -89.0408 264° West 407 468 24,000 -240 Level Kansas City Center
07:53PM 37.7844 -89.1567 284° West 365 420 23,600 -780 Descending Kansas City Center
07:54PM 37.8053 -89.2675 283° West 344 396 22,500 -1,080 Descending Kansas City Center
07:55PM 37.8267 -89.3742 284° West 331 381 21,400 -1,080 Descending Kansas City Center
07:56PM 37.8444 -89.4747 283° West 312 359 20,300 -1,020 Descending Kansas City Center
07:57PM 37.8656 -89.5758 285° West 303 349 19,300 -960 Descending Kansas City Center
07:58PM 37.8836 -89.6750 283° West 296 341 18,300 -1,200 Descending Kansas City Center
07:59PM 37.9181 -89.7861 291° West 288 331 16,800 -1,500 Descending Kansas City Center
08:00PM 37.9675 -89.8614 310° West 279 321 15,300 -1,500 Descending Kansas City Center
08:01PM 38.0219 -89.9425 310° West 279 321 13,700 -1,500 Descending Kansas City Center
08:02PM 38.0722 -90.0186 310° West 280 322 12,200 -1,500 Descending Kansas City Center
08:03PM 38.1194 -90.0906 310° West 270 311 10,700 -1,020 Descending Kansas City Center
08:04PM 38.1700 -90.1669 310° West 267 307 10,100 -300 Descending Kansas City Center
08:05PM 38.2169 -90.2383 310° West 264 304 10,100  Level Kansas City Center
08:06PM 38.2678 -90.3161 310° West 264 304 10,100 -60 Level Kansas City Center
08:07PM 38.3144 -90.3883 309° West 264 304 10,000 -60 Descending Kansas City Center
08:08PM 38.3619 -90.4594 310° West 264 304 10,000  Level Kansas City Center
08:10PM 38.4072 -90.5278 310° West 236 272 10,000  Level Kansas City Center
08:11PM 38.4361 -90.5733 309° West 199 229 10,000  Level Kansas City Center
08:12PM 38.4786 -90.6378 310° West 199 229 10,000  Level Kansas City Center
08:13PM 38.5125 -90.6900 310° West 194 223 10,000  Level Kansas City Center
08:14PM 38.5478 -90.7442 310° West 194 223 10,000  Level Kansas City Center
08:15PM 38.5828 -90.7978 310° West 194 223 10,100  Climbing Kansas City Center
08:16PM 38.6178 -90.8514 310° West 195 224 10,000 -60 Descending Kansas City Center
08:17PM 38.6528 -90.9067 309° West 195 224 10,000  Level Kansas City Center
08:18PM 38.6881 -90.9603 310° West 195 224 10,100  Climbing Kansas City Center
08:19PM 38.7372 -90.9944 332° Northwest 169 194 10,000 -60 Descending Kansas City Center
08:20PM 38.7817 -91.0117 343° North 161 185 10,000  Level Kansas City Center
08:21PM 38.8306 -91.0292 344° North 175 201 10,000 -300 Level Kansas City Center
08:22PM 38.8806 -91.0419 349° North 180 207 9,400 -1,260 Descending Kansas City Center
08:23PM 38.8694 -90.9892 105° East 213 245 7,400 -1,980 Descending Kansas City Center
08:24PM 38.8158 -90.9850 177° South 198 228 5,400 -2,100 Descending Kansas City Center
08:25PM 38.7506 -90.9858 181° South 197 227 3,100 -1,260 Descending Kansas City Center
08:26PM 38.7164 -90.9542 144° Southeast 185 213 2,900 -360 Descending Kansas City Center
08:27PM 38.6956 -90.9014 117° Southeast 173 199 2,400 -300 Descending Kansas City Center
08:28PM 38.6744 -90.8539 120° Southeast 164 189 2,400  Level Kansas City Center
08:29PM 38.6558 -90.8067 117° Southeast 156 180 2,400 -180 Level Kansas City Center
08:30PM 38.6439 -90.7589 108° East 151 174 2,100 -540 Descending Kansas City Center
08:31PM 38.6489 -90.7125 82° East 141 162 1,400 -840 Descending Kansas City Center
08:32PM 38.6578 -90.6594 78° East 132 152 500 -900 Descending Kansas City Center